Aniara — SKJC — position and weather

sailwx.info

Track history (hours):
 
Tides and Currents Weather Stations Pressure Air Temp Water Temp Dewpoint Dewpoint Depression Visibility Wind Speed Wind Dir Waves Ship Positions

Aniara

Last reported at 2014-Jul-25 21:32 UTC. Time now 2014-Jul-25 23:05 UTC.
Position S 26°58' E 153°36'.

Length 232 m; draft 8.1 m.

Type: Cargo ship. MMSI: 266282000.

Date/timePositionNaut miles runAvg speedWind from/ knotsBaromVisibWave heightAir tempDewpointWater temp
2014-Jul-25 21:32S 26°58' E 153°36'1616.3
2014-Jul-25 20:34S 27°14' E 153°39'1716.6
2014-Jul-25 19:34S 27°30' E 153°41'1716.2
2014-Jul-25 18:32S 27°47' E 153°44'1616.6
2014-Jul-25 17:33S 28°03' E 153°47'23816.6
2014-Jul-25 03:12S 31°56' E 152°52'1116.9
2014-Jul-25 02:33S 32°06' E 152°47'1716.7
2014-Jul-25 01:34S 32°22' E 152°40'1616.4
2014-Jul-25 00:33S 32°36' E 152°31'1717.0
2014-Jul-24 23:33S 32°50' E 152°20'1717.4
2014-Jul-24 22:33S 33°05' E 152°09'1817.7
2014-Jul-24 21:33S 33°20' E 151°57'1717.3
2014-Jul-24 20:33S 33°34' E 151°45'1917.7
2014-Jul-24 19:30S 33°49' E 151°32'213 7.5
2014-Jul-23 15:08S 37°12' E 150°14'914.8
2014-Jul-23 14:32S 37°20' E 150°11'1715.4
2014-Jul-23 13:24S 37°37' E 150°03'1314.7
2014-Jul-23 12:33S 37°45' E 149°52'1514.9
2014-Jul-23 11:33S 37°56' E 149°39'5014.5
2014-Jul-23 08:06S 38°27' E 148°48'7616.0
2014-Jul-23 03:22S 39°01' E 147°22'1416.6
2014-Jul-23 02:32S 39°06' E 147°05'1616.5
2014-Jul-23 01:33S 39°12' E 146°46'1616.3
2014-Jul-23 00:34S 39°16' E 146°25'1615.7
2014-Jul-22 23:33S 39°11' E 146°06'1716.3
2014-Jul-22 22:31S 39°02' E 145°47'1616.4
2014-Jul-22 21:33S 38°54' E 145°30'1616.5
2014-Jul-22 20:33S 38°45' E 145°12'1716.5
2014-Jul-22 19:32S 38°36' E 144°54'109 3.5
2014-Jul-21 12:13S 38°48' E 142°35'1114.8
2014-Jul-21 11:29S 38°46' E 142°22'1914.8
2014-Jul-21 10:13S 38°44' E 141°58'31 4.4
2014-Jul-21 03:16S 38°38' E 141°19'1 1.2
2014-Jul-21 02:25S 38°38' E 141°18'2 2.1
2014-Jul-21 01:32S 38°38' E 141°15'2 1.8
2014-Jul-21 00:33S 38°38' E 141°13'1111.3
2014-Jul-20 23:33S 38°36' E 140°59'1616.5
2014-Jul-20 22:33S 38°33' E 140°38'1615.9
2014-Jul-20 21:33S 38°30' E 140°18'1815.6
2014-Jul-20 20:24S 38°27' E 139°55'1615.1
2014-Jul-20 19:21S 38°24' E 139°36'  
Track history (hours):
 
Tides and Currents Weather Stations Pressure Air Temp Water Temp Dewpoint Dewpoint Depression Visibility Wind Speed Wind Dir Waves Ship Positions

Aniara

Last reported at 2014-Jul-25 21:32 UTC. Time now 2014-Jul-25 23:05 UTC.
Position S 26°58' E 153°36'.

Length 232 m; draft 8.1 m.

Type: Cargo ship. MMSI: 266282000.

Date/timePositionNaut miles runAvg speedWind from/ knotsBaromVisibWave heightAir tempDewpointWater temp
2014-Jul-25 21:32S 26°58' E 153°36'1616.3
2014-Jul-25 20:34S 27°14' E 153°39'1716.6
2014-Jul-25 19:34S 27°30' E 153°41'1716.2
2014-Jul-25 18:32S 27°47' E 153°44'1616.6
2014-Jul-25 17:33S 28°03' E 153°47'23816.6
2014-Jul-25 03:12S 31°56' E 152°52'1116.9
2014-Jul-25 02:33S 32°06' E 152°47'1716.7
2014-Jul-25 01:34S 32°22' E 152°40'1616.4
2014-Jul-25 00:33S 32°36' E 152°31'1717.0
2014-Jul-24 23:33S 32°50' E 152°20'1717.4
2014-Jul-24 22:33S 33°05' E 152°09'1817.7
2014-Jul-24 21:33S 33°20' E 151°57'1717.3
2014-Jul-24 20:33S 33°34' E 151°45'1917.7
2014-Jul-24 19:30S 33°49' E 151°32'213 7.5
2014-Jul-23 15:08S 37°12' E 150°14'914.8
2014-Jul-23 14:32S 37°20' E 150°11'1715.4
2014-Jul-23 13:24S 37°37' E 150°03'1314.7
2014-Jul-23 12:33S 37°45' E 149°52'1514.9
2014-Jul-23 11:33S 37°56' E 149°39'5014.5
2014-Jul-23 08:06S 38°27' E 148°48'7616.0
2014-Jul-23 03:22S 39°01' E 147°22'1416.6
2014-Jul-23 02:32S 39°06' E 147°05'1616.5
2014-Jul-23 01:33S 39°12' E 146°46'1616.3
2014-Jul-23 00:34S 39°16' E 146°25'1615.7
2014-Jul-22 23:33S 39°11' E 146°06'1716.3
2014-Jul-22 22:31S 39°02' E 145°47'1616.4
2014-Jul-22 21:33S 38°54' E 145°30'1616.5
2014-Jul-22 20:33S 38°45' E 145°12'1716.5
2014-Jul-22 19:32S 38°36' E 144°54'109 3.5
2014-Jul-21 12:13S 38°48' E 142°35'1114.8
2014-Jul-21 11:29S 38°46' E 142°22'1914.8
2014-Jul-21 10:13S 38°44' E 141°58'31 4.4
2014-Jul-21 03:16S 38°38' E 141°19'1 1.2
2014-Jul-21 02:25S 38°38' E 141°18'2 2.1
2014-Jul-21 01:32S 38°38' E 141°15'2 1.8
2014-Jul-21 00:33S 38°38' E 141°13'1111.3
2014-Jul-20 23:33S 38°36' E 140°59'1616.5
2014-Jul-20 22:33S 38°33' E 140°38'1615.9
2014-Jul-20 21:33S 38°30' E 140°18'1815.6
2014-Jul-20 20:24S 38°27' E 139°55'1615.1
2014-Jul-20 19:21S 38°24' E 139°36'  

Dump ship's entire track history